Time;durP1;ratioP1;P1;durP2;ratioP2;P2;SDS_P1;SDS_P2;PMS_P1;PMS_P2;Temp;Humidity;BMP_temperature;BMP_pressure;BME280_temperature;BME280_humidity;BME280_pressure;Samples;Min_cycle;Max_cycle;Signal;HPM_P1;HPM_P2
2022/04/22 00:00:29;;;;;;;1.38;0.52;;;;;;;19.08;45.36;99488.22;4986834;28;20100;-58
2022/04/22 00:02:55;;;;;;;1.65;0.68;;;;;;;19.09;45.35;99491.66;4988135;28;20030;-58
2022/04/22 00:05:21;;;;;;;2.35;0.75;;;;;;;19.08;45.57;99488.22;4986968;28;20030;-58
2022/04/22 00:07:46;;;;;;;1.50;0.75;;;;;;;19.08;45.32;99487.41;4986653;28;20060;-58
2022/04/22 00:10:12;;;;;;;2.33;0.63;;;;;;;19.07;45.34;99475.25;4986918;28;20034;-58
2022/04/22 00:12:38;;;;;;;1.00;0.60;;;;;;;19.07;45.46;99459.41;4987160;28;20054;-58
2022/04/22 00:15:05;;;;;;;2.05;0.60;;;;;;;19.07;45.42;99454.94;4985984;28;20116;-58
2022/04/22 00:17:30;;;;;;;1.52;0.50;;;;;;;19.07;45.34;99448.84;4987208;28;20022;-58
2022/04/22 00:19:56;;;;;;;1.23;0.60;;;;;;;19.07;45.25;99444.38;4986862;28;20034;-58
2022/04/22 00:22:21;;;;;;;1.85;0.60;;;;;;;19.08;45.41;99445.19;4987546;28;20545;-58
2022/04/22 00:24:47;;;;;;;1.20;0.50;;;;;;;19.06;45.27;99434.03;4987449;28;20481;-58
2022/04/22 00:27:13;;;;;;;1.40;0.50;;;;;;;19.07;45.30;99441.72;4985912;28;20030;-58
2022/04/22 00:29:38;;;;;;;1.90;0.50;;;;;;;19.08;45.33;99437.25;4985693;28;20474;-58
2022/04/22 00:32:04;;;;;;;1.63;0.70;;;;;;;19.07;45.25;99427.72;4985232;28;20046;-58
2022/04/22 00:34:30;;;;;;;2.63;0.65;;;;;;;19.07;45.19;99433.00;4987558;28;20023;-59
2022/04/22 00:36:55;;;;;;;1.10;0.45;;;;;;;19.06;45.31;99420.84;4985577;28;20034;-58
2022/04/22 00:39:20;;;;;;;0.70;0.30;;;;;;;19.06;45.29;99415.56;4987068;28;20453;-58
2022/04/22 00:41:46;;;;;;;1.02;0.40;;;;;;;19.04;45.33;99413.13;4987152;28;20050;-59
2022/04/22 00:44:11;;;;;;;0.90;0.50;;;;;;;19.04;45.31;99412.34;4986898;28;20023;-59
2022/04/22 00:46:37;;;;;;;1.00;0.50;;;;;;;19.03;45.30;99408.09;4985971;28;20546;-58
2022/04/22 00:49:03;;;;;;;1.10;0.60;;;;;;;19.03;45.33;99406.25;4986294;28;20115;-59
2022/04/22 00:51:31;;;;;;;0.95;0.40;;;;;;;19.01;45.21;99395.09;4986120;28;20030;-57
2022/04/22 00:53:57;;;;;;;1.27;0.60;;;;;;;19.01;45.43;99389.84;4985408;28;20043;-58
2022/04/22 00:56:22;;;;;;;0.95;0.40;;;;;;;19.02;45.46;99385.34;4987330;28;20030;-58
2022/04/22 00:58:50;;;;;;;0.47;0.30;;;;;;;19.00;45.47;99390.84;4983242;28;20078;-58
2022/04/22 01:01:15;;;;;;;1.65;0.60;;;;;;;19.00;45.49;99387.41;4984513;28;20084;-58
2022/04/22 01:12:06;;;;;;;0.60;0.45;;;;;;;18.94;45.64;99375.13;4957269;28;19980;-58
2022/04/22 01:14:32;;;;;;;1.05;0.40;;;;;;;18.97;45.61;99374.66;4946409;28;20067;-58
2022/04/22 01:16:57;;;;;;;0.63;0.28;;;;;;;18.98;45.54;99371.81;4950371;28;20043;-57
2022/04/22 01:19:23;;;;;;;0.88;0.32;;;;;;;19.01;45.40;99370.53;4962685;28;20064;-58
2022/04/22 01:21:49;;;;;;;0.98;0.38;;;;;;;19.03;45.47;99368.50;4961458;28;20074;-57
2022/04/22 01:24:14;;;;;;;0.98;0.40;;;;;;;19.03;45.46;99363.22;4956159;28;20560;-59
2022/04/22 01:26:39;;;;;;;1.88;0.40;;;;;;;19.04;45.29;99362.19;4952156;28;20023;-58
2022/04/22 01:29:06;;;;;;;0.65;0.40;;;;;;;19.06;45.29;99354.84;4951813;28;20047;-60
2022/04/22 01:31:31;;;;;;;1.27;0.40;;;;;;;19.06;45.35;99347.72;4952884;28;20055;-58
2022/04/22 01:33:57;;;;;;;1.70;0.40;;;;;;;19.07;45.33;99348.53;4956256;28;20050;-58
2022/04/22 01:36:22;;;;;;;0.50;0.30;;;;;;;19.06;45.29;99325.81;4959782;28;20494;-58
2022/04/22 01:38:48;;;;;;;1.10;0.43;;;;;;;19.07;45.23;99324.78;4956043;28;20069;-58
2022/04/22 01:41:13;;;;;;;1.10;0.30;;;;;;;19.06;45.36;99320.53;4956882;28;20027;-57
2022/04/22 01:43:38;;;;;;;0.70;0.40;;;;;;;19.06;45.45;99320.53;4966529;28;20072;-58
2022/04/22 01:46:04;;;;;;;1.00;0.30;;;;;;;19.05;45.47;99308.34;4985208;28;20065;-58
2022/04/22 01:48:30;;;;;;;0.90;0.30;;;;;;;19.04;45.40;99306.75;4987035;28;20030;-57
2022/04/22 01:50:56;;;;;;;1.10;0.70;;;;;;;19.02;45.46;99299.06;4984130;28;20042;-58
2022/04/22 01:53:22;;;;;;;1.08;0.50;;;;;;;19.03;45.45;99284.03;4985691;28;20077;-57
2022/04/22 01:55:48;;;;;;;0.50;0.20;;;;;;;19.02;45.64;99277.13;4985347;28;20031;-56
2022/04/22 01:58:13;;;;;;;0.95;0.30;;;;;;;19.01;45.65;99268.41;4986018;28;20026;-59
2022/04/22 02:00:39;;;;;;;0.75;0.35;;;;;;;19.01;45.58;99272.88;4984644;28;20030;-60
2022/04/22 02:03:04;;;;;;;0.82;0.30;;;;;;;18.99;45.63;99259.09;4985296;28;20113;-59
2022/04/22 02:05:30;;;;;;;0.80;0.25;;;;;;;18.99;45.55;99256.47;4985918;28;20088;-59
2022/04/22 02:07:55;;;;;;;1.10;0.30;;;;;;;18.99;45.64;99257.28;4985838;28;20351;-58
2022/04/22 02:12:55;;;;;;;0.75;0.30;;;;;;;18.97;45.52;99248.78;4940010;23;20095;-60
2022/04/22 02:15:21;;;;;;;0.70;0.30;;;;;;;18.97;45.65;99247.97;4987694;28;20031;-57
2022/04/22 02:17:46;;;;;;;0.93;0.32;;;;;;;18.96;45.52;99249.81;4987846;28;20513;-60
2022/04/22 02:20:12;;;;;;;1.15;0.30;;;;;;;18.96;45.62;99241.09;4987671;28;20331;-60
2022/04/22 02:22:37;;;;;;;1.67;0.30;;;;;;;18.96;45.61;99241.09;4976153;28;20101;-58
2022/04/22 02:25:04;;;;;;;0.50;0.20;;;;;;;18.96;45.48;99246.38;4972372;28;20051;-60
2022/04/22 02:30:15;;;;;;;0.75;0.30;;;;;;;18.96;45.60;99241.09;4972224;28;20362;-58
2022/04/22 02:32:41;;;;;;;0.57;0.20;;;;;;;18.97;45.54;99247.97;4984149;28;20065;-60
2022/04/22 02:35:07;;;;;;;0.60;0.20;;;;;;;18.97;45.26;99243.50;4991162;28;20058;-58
2022/04/22 02:37:32;;;;;;;0.70;0.30;;;;;;;18.97;45.60;99237.41;4991244;28;20029;-57
2022/04/22 02:39:58;;;;;;;1.42;0.30;;;;;;;18.96;45.56;99231.34;4991126;28;20038;-59
2022/04/22 02:47:51;;;;;;;0.40;0.20;;;;;;;18.95;45.50;99223.66;4991442;28;20735;-58
2022/04/22 02:50:16;;;;;;;0.80;0.30;;;;;;;18.95;45.45;99224.44;4990876;28;20223;-61
2022/04/22 02:52:42;;;;;;;0.40;0.20;;;;;;;18.95;45.52;99218.38;4991048;28;20092;-60
2022/04/22 02:55:07;;;;;;;4.93;0.30;;;;;;;18.94;45.47;99216.75;4985337;28;20367;-57
2022/04/22 02:57:33;;;;;;;0.57;0.20;;;;;;;18.94;45.51;99206.19;4971098;28;20510;-57
2022/04/22 02:59:58;;;;;;;0.70;0.30;;;;;;;18.93;45.49;99194.03;4971463;28;20038;-57
2022/04/22 03:02:24;;;;;;;1.55;0.20;;;;;;;18.92;45.56;99187.97;4971437;28;20462;-58
2022/04/22 03:04:49;;;;;;;1.10;0.28;;;;;;;18.92;45.60;99179.25;4971057;28;20030;-59
2022/04/22 03:07:15;;;;;;;1.45;0.30;;;;;;;18.91;45.45;99181.06;4971207;28;20034;-60
2022/04/22 03:09:40;;;;;;;1.20;0.30;;;;;;;18.89;45.50;99189.25;4985935;28;20054;-59
2022/04/22 03:12:08;;;;;;;0.60;0.20;;;;;;;18.90;45.58;99169.72;4970621;28;20055;-59
2022/04/22 03:14:33;;;;;;;0.75;0.20;;;;;;;18.90;45.36;99185.53;4970823;28;20034;-59
2022/04/22 03:16:59;;;;;;;0.65;0.20;;;;;;;18.89;45.48;99178.69;4970883;28;20034;-57
2022/04/22 03:19:24;;;;;;;0.65;0.20;;;;;;;18.88;45.66;99166.53;4971002;28;20027;-59
2022/04/22 03:21:50;;;;;;;0.88;0.22;;;;;;;18.89;45.45;99162.84;4970823;28;20043;-59
2022/04/22 03:24:16;;;;;;;0.55;0.20;;;;;;;18.90;45.47;99167.06;4970801;28;20085;-57
2022/04/22 03:26:41;;;;;;;0.75;0.20;;;;;;;18.91;45.60;99154.69;4970763;28;20361;-59
2022/04/22 03:29:06;;;;;;;0.32;0.20;;;;;;;18.90;45.42;99153.88;4971079;28;20114;-56
2022/04/22 03:31:32;;;;;;;0.95;0.28;;;;;;;18.92;45.43;99143.09;4970460;28;20042;-58
2022/04/22 03:33:57;;;;;;;0.93;0.10;;;;;;;18.92;45.49;99137.81;4971164;28;20030;-59
2022/04/22 03:36:22;;;;;;;0.70;0.13;;;;;;;18.94;45.21;99137.59;4970866;28;20026;-57
2022/04/22 03:38:48;;;;;;;0.57;0.25;;;;;;;18.94;45.30;99138.38;4970709;28;20489;-58
2022/04/22 03:41:13;;;;;;;0.40;0.17;;;;;;;18.96;45.10;99132.88;4970473;28;20026;-60
2022/04/22 03:43:39;;;;;;;0.40;0.20;;;;;;;18.96;45.27;99127.59;4970393;28;20054;-58
2022/04/22 03:46:05;;;;;;;0.80;0.28;;;;;;;18.97;45.12;99131.84;4970344;28;20054;-58
2022/04/22 03:48:30;;;;;;;0.50;0.20;;;;;;;18.96;45.37;99136.31;4970486;28;20494;-60
2022/04/22 03:50:56;;;;;;;0.65;0.20;;;;;;;18.96;45.30;99138.97;4970625;28;20041;-58
2022/04/22 03:53:21;;;;;;;1.52;0.30;;;;;;;18.97;45.17;99131.84;4970175;28;20044;-58
2022/04/22 03:55:47;;;;;;;0.40;0.20;;;;;;;18.95;45.21;99132.06;4970153;28;20141;-58
2022/04/22 03:58:16;;;;;;;0.40;0.17;;;;;;;18.95;45.35;99137.34;4969904;28;20033;-57
2022/04/22 04:00:42;;;;;;;0.30;0.13;;;;;;;18.95;45.27;99132.06;4970309;28;20035;-59
2022/04/22 04:03:09;;;;;;;0.77;0.20;;;;;;;18.94;45.35;99137.59;4969947;28;20039;-58
2022/04/22 04:05:36;;;;;;;0.60;0.20;;;;;;;18.93;45.41;99146.53;4984774;28;20497;-59
2022/04/22 04:08:02;;;;;;;0.65;0.20;;;;;;;18.93;45.17;99154.44;4969732;28;20607;-59
2022/04/22 04:15:58;;;;;;;0.50;0.20;;;;;;;18.89;45.24;99160.22;4970458;28;20109;-59
2022/04/22 04:18:24;;;;;;;0.20;0.10;;;;;;;18.90;45.41;99161.03;4970328;28;20097;-59
2022/04/22 04:23:34;;;;;;;1.20;0.20;;;;;;;18.88;46.00;99163.91;4988931;28;20101;-59
2022/04/22 04:25:59;;;;;;;1.83;0.20;;;;;;;18.89;47.01;99162.84;4973286;28;20038;-58
2022/04/22 04:28:27;;;;;;;1.50;0.25;;;;;;;18.92;47.90;99166.03;4979175;28;20038;-58
2022/04/22 04:30:54;;;;;;;1.27;0.10;;;;;;;18.89;47.54;99162.84;4988473;28;20034;-57
2022/04/22 04:33:19;;;;;;;0.50;0.20;;;;;;;18.90;46.81;99164.44;4989042;28;20116;-61
2022/04/22 04:35:47;;;;;;;2.15;0.30;;;;;;;18.89;46.92;99162.06;4988632;28;20105;-57
2022/04/22 04:38:13;;;;;;;2.22;0.20;;;;;;;18.90;46.51;99164.44;4989047;28;20062;-59
2022/04/22 04:40:39;;;;;;;2.22;0.20;;;;;;;18.91;46.60;99170.50;4989184;28;20033;-58
2022/04/22 04:43:05;;;;;;;4.00;0.30;;;;;;;18.91;46.91;99159.97;4987825;28;20490;-59
2022/04/22 04:45:32;;;;;;;1.80;0.20;;;;;;;18.95;48.05;99155.03;4988950;28;20030;-60
2022/04/22 04:47:57;;;;;;;11.18;1.27;;;;;;;19.04;49.54;99157.09;4988432;28;20026;-59
2022/04/22 04:50:23;;;;;;;9.85;0.60;;;;;;;19.07;49.42;99154.00;4988723;28;20022;-60
2022/04/22 04:52:48;;;;;;;2.90;0.50;;;;;;;19.04;48.73;99149.16;4988839;28;20045;-60
2022/04/22 04:55:14;;;;;;;5.15;0.40;;;;;;;19.01;48.52;99144.34;4988766;28;20022;-60
2022/04/22 04:57:41;;;;;;;2.05;0.40;;;;;;;18.99;48.00;99145.63;4987942;28;20026;-60
2022/04/22 05:00:08;;;;;;;2.05;0.30;;;;;;;18.98;47.87;99151.94;4987525;28;20030;-61
2022/04/22 05:02:34;;;;;;;4.03;0.28;;;;;;;18.96;47.67;99149.53;4987371;28;20042;-60
2022/04/22 05:05:00;;;;;;;0.90;0.20;;;;;;;18.95;47.41;99147.91;4987497;28;20027;-60
2022/04/22 05:07:26;;;;;;;1.27;0.20;;;;;;;18.95;47.49;99149.75;4988232;28;20041;-60
2022/04/22 05:09:52;;;;;;;1.65;0.20;;;;;;;18.95;47.24;99152.38;4987480;28;20399;-59
2022/04/22 05:12:17;;;;;;;2.03;0.20;;;;;;;18.93;46.86;99155.25;4988028;28;20074;-60
2022/04/22 05:14:46;;;;;;;1.20;0.20;;;;;;;18.94;47.03;99153.41;4987195;28;20030;-59
2022/04/22 05:17:11;;;;;;;0.80;0.20;;;;;;;18.94;46.92;99156.06;4988448;28;20034;-59
2022/04/22 05:19:37;;;;;;;2.92;0.25;;;;;;;18.93;46.92;99149.16;4988301;28;20092;-62
2022/04/22 05:22:02;;;;;;;0.40;0.20;;;;;;;18.92;46.82;99144.94;4988697;28;20053;-60
2022/04/22 05:24:28;;;;;;;1.63;0.20;;;;;;;18.91;46.79;99144.13;4987277;28;20094;-59
2022/04/22 05:26:53;;;;;;;0.47;0.20;;;;;;;18.90;46.84;99145.97;4984538;28;20042;-59
2022/04/22 05:34:46;;;;;;;1.77;0.20;;;;;;;18.87;46.75;99146.44;4987080;28;20113;-62
2022/04/22 05:37:12;;;;;;;0.50;0.20;;;;;;;18.88;46.73;99142.78;4988207;28;20035;-60
2022/04/22 05:39:37;;;;;;;4.72;0.28;;;;;;;18.88;46.65;99137.50;4987111;28;20038;-59
2022/04/22 05:42:03;;;;;;;0.40;0.20;;;;;;;18.90;46.51;99130.13;4986894;28;20030;-59
2022/04/22 05:44:28;;;;;;;0.63;0.20;;;;;;;18.92;46.64;99129.09;4986362;28;20080;-62
2022/04/22 05:46:54;;;;;;;2.17;0.30;;;;;;;18.92;46.46;99126.47;4986913;28;20040;-62
2022/04/22 05:49:19;;;;;;;1.85;0.35;;;;;;;18.94;46.22;99116.47;4982531;28;20034;-61
2022/04/22 05:51:45;;;;;;;1.08;0.30;;;;;;;18.94;46.27;99116.47;4976453;28;20026;-59
2022/04/22 05:54:10;;;;;;;2.05;0.30;;;;;;;18.95;46.22;99099.59;4987805;28;20492;-59
2022/04/22 05:56:36;;;;;;;0.80;0.20;;;;;;;18.95;46.37;99103.03;4987420;28;20109;-59
2022/04/22 05:59:02;;;;;;;0.82;0.20;;;;;;;18.95;46.30;99092.50;4986260;28;20134;-62
2022/04/22 06:01:28;;;;;;;0.50;0.20;;;;;;;18.96;46.27;99085.38;4980759;28;20027;-59
2022/04/22 06:03:53;;;;;;;0.88;0.20;;;;;;;18.96;46.24;99082.75;4985584;28;20027;-61
2022/04/22 06:06:19;;;;;;;0.57;0.20;;;;;;;18.95;46.44;99078.50;4987530;28;20040;-62
2022/04/22 06:11:28;;;;;;;3.35;0.40;;;;;;;18.93;46.39;99070.00;4986036;28;21671;-58
2022/04/22 06:13:54;;;;;;;0.40;0.20;;;;;;;18.92;46.33;99063.91;4987209;28;20033;-60
2022/04/22 06:16:19;;;;;;;0.60;0.30;;;;;;;18.92;46.26;99063.13;4987709;28;20446;-59
2022/04/22 06:18:45;;;;;;;0.50;0.20;;;;;;;18.92;46.19;99060.47;4986091;28;20510;-62
2022/04/22 06:21:10;;;;;;;0.38;0.13;;;;;;;18.90;46.31;99066.78;4987685;28;20558;-60
2022/04/22 06:23:36;;;;;;;0.43;0.20;;;;;;;18.90;46.25;99066.78;4985981;28;20092;-60
2022/04/22 06:26:01;;;;;;;0.85;0.20;;;;;;;18.88;46.12;99060.97;4986451;28;20037;-59
2022/04/22 06:28:27;;;;;;;1.17;0.20;;;;;;;18.89;46.37;99064.41;4973041;28;20030;-61
2022/04/22 06:30:52;;;;;;;0.40;0.20;;;;;;;18.87;46.27;99054.09;4968221;28;20126;-59
2022/04/22 06:33:18;;;;;;;0.90;0.20;;;;;;;18.87;46.20;99059.38;4968260;28;20035;-59
2022/04/22 06:35:44;;;;;;;1.25;0.30;;;;;;;18.86;46.15;99047.22;4977042;28;20109;-61
2022/04/22 06:38:14;;;;;;;3.05;0.20;;;;;;;18.85;46.23;99040.31;4986853;28;20057;-59
2022/04/22 06:46:09;;;;;;;1.15;0.40;;;;;;;18.84;46.23;99022.88;4986792;28;20666;-62
2022/04/22 06:48:35;;;;;;;0.40;0.13;;;;;;;18.84;46.17;99028.16;4986780;28;20755;-61
2022/04/22 06:51:02;;;;;;;0.82;0.40;;;;;;;18.85;46.19;99032.41;4987650;28;20027;-61
2022/04/22 06:53:28;;;;;;;1.67;0.20;;;;;;;18.86;46.15;99027.94;4986217;28;20481;-60
2022/04/22 06:55:58;;;;;;;0.40;0.20;;;;;;;18.86;46.07;99035.84;4985741;28;20030;-62
2022/04/22 06:58:23;;;;;;;0.70;0.30;;;;;;;18.86;46.16;99036.66;4985937;28;20034;-61
2022/04/22 07:00:49;;;;;;;0.40;0.20;;;;;;;18.86;45.98;99020.81;4978094;28;20482;-62
2022/04/22 07:03:17;;;;;;;0.70;0.20;;;;;;;18.85;46.30;99024.50;4987507;28;20041;-60
2022/04/22 07:05:44;;;;;;;0.43;0.20;;;;;;;18.85;46.21;99021.84;4978384;28;20467;-60
2022/04/22 07:08:14;;;;;;;0.55;0.30;;;;;;;18.84;46.12;99022.88;4971189;28;20484;-61
2022/04/22 07:10:43;;;;;;;1.30;0.30;;;;;;;18.83;46.10;99023.94;4978791;28;20026;-61
2022/04/22 07:13:10;;;;;;;0.68;0.20;;;;;;;18.83;46.15;99026.56;4988216;28;20053;-63
2022/04/22 07:15:36;;;;;;;0.85;0.40;;;;;;;18.82;46.06;99019.69;4986091;28;20466;-59
2022/04/22 07:18:02;;;;;;;0.75;0.32;;;;;;;18.82;46.30;99009.13;4980479;28;20097;-62
2022/04/22 07:20:28;;;;;;;1.85;0.30;;;;;;;18.82;46.26;99010.97;4985904;28;20037;-60
2022/04/22 07:22:54;;;;;;;0.73;0.20;;;;;;;18.81;46.22;99010.16;4990078;28;20071;-61
2022/04/22 07:25:21;;;;;;;0.88;0.20;;;;;;;18.81;46.28;99012.00;4997551;28;20035;-62
2022/04/22 07:27:47;;;;;;;0.80;0.30;;;;;;;18.83;47.26;99008.09;4988820;28;20065;-59
2022/04/22 07:30:17;;;;;;;2.65;0.40;;;;;;;18.93;47.97;99015.38;4990240;28;20034;-61
2022/04/22 07:32:47;;;;;;;5.47;2.20;;;;;;;18.98;48.10;99012.84;4987710;28;20034;-61
2022/04/22 07:35:14;;;;;;;1.52;0.40;;;;;;;18.97;48.35;99010.44;4987384;28;20497;-59
2022/04/22 07:37:40;;;;;;;2.45;0.35;;;;;;;18.95;48.18;99009.88;4987849;28;20038;-61
2022/04/22 07:40:07;;;;;;;0.85;0.30;;;;;;;18.92;48.25;99019.06;4989328;28;20041;-59
2022/04/22 07:42:34;;;;;;;2.92;0.30;;;;;;;18.92;48.37;99018.25;4992820;28;20033;-62
2022/04/22 07:47:47;;;;;;;1.55;0.30;;;;;;;18.90;48.61;98989.50;4982350;28;20145;-62
2022/04/22 07:50:13;;;;;;;0.93;0.28;;;;;;;18.94;48.98;98979.25;4987001;28;20363;-63
2022/04/22 07:52:40;;;;;;;1.58;0.28;;;;;;;18.95;49.05;98976.38;4985580;28;20053;-64
2022/04/22 07:55:06;;;;;;;1.35;0.30;;;;;;;18.96;48.56;98972.69;4988085;28;20034;-62
2022/04/22 07:57:31;;;;;;;3.53;0.20;;;;;;;18.96;48.38;98967.41;4983318;28;20033;-61
2022/04/22 07:59:57;;;;;;;3.42;0.30;;;;;;;18.96;48.09;98953.41;4984729;28;20026;-60
2022/04/22 08:02:24;;;;;;;4.13;0.20;;;;;;;18.96;48.36;98948.16;4987629;28;20034;-63
2022/04/22 08:04:50;;;;;;;2.20;0.30;;;;;;;18.96;48.21;98941.03;4989185;28;20019;-63
2022/04/22 08:07:16;;;;;;;1.75;0.20;;;;;;;18.96;47.97;98946.31;4984050;28;20033;-59
2022/04/22 08:09:44;;;;;;;0.40;0.10;;;;;;;18.96;47.63;98940.22;4987353;28;20033;-62
2022/04/22 08:12:12;;;;;;;0.68;0.20;;;;;;;18.97;47.50;98957.66;4982822;28;20077;-61
2022/04/22 08:14:38;;;;;;;1.20;0.30;;;;;;;18.98;47.54;98964.53;4987378;28;20038;-60
2022/04/22 08:17:03;;;;;;;4.45;0.20;;;;;;;18.97;47.25;98965.56;4988701;28;20121;-60
2022/04/22 08:19:29;;;;;;;0.65;0.10;;;;;;;18.96;47.08;98954.22;4986505;28;20129;-62
2022/04/22 08:21:54;;;;;;;3.92;0.20;;;;;;;18.95;47.20;98959.72;4988629;28;20030;-60
2022/04/22 08:24:20;;;;;;;5.15;0.50;;;;;;;18.94;47.12;98937.03;4988424;28;20042;-61
2022/04/22 08:26:46;;;;;;;4.30;0.20;;;;;;;18.93;47.17;98944.13;4988464;28;20030;-61
2022/04/22 08:29:11;;;;;;;4.00;0.20;;;;;;;18.93;46.98;98945.97;4988841;28;20379;-62
2022/04/22 08:31:37;;;;;;;2.38;0.20;;;;;;;18.93;46.93;98935.41;4988188;28;20044;-61
2022/04/22 08:34:02;;;;;;;0.30;0.10;;;;;;;18.90;47.05;98934.06;4988618;28;20027;-59
2022/04/22 08:36:29;;;;;;;2.15;0.13;;;;;;;18.90;46.86;98934.06;4984651;28;20045;-60
2022/04/22 08:38:57;;;;;;;2.58;0.20;;;;;;;18.88;46.93;98923.75;4986527;28;20062;-62
2022/04/22 08:41:22;;;;;;;2.65;0.20;;;;;;;18.88;46.99;98929.03;4986287;28;20550;-63
2022/04/22 08:43:51;;;;;;;1.10;0.10;;;;;;;18.87;47.16;98931.91;4986427;28;20121;-60
2022/04/22 08:51:45;;;;;;;1.48;0.10;;;;;;;18.85;47.11;98923.44;4988853;28;20115;-60
2022/04/22 08:54:13;;;;;;;0.75;0.20;;;;;;;18.84;47.10;98912.06;4988562;28;20462;-62
2022/04/22 08:56:39;;;;;;;1.17;0.10;;;;;;;18.84;47.16;98914.72;4985041;28;20031;-61
2022/04/22 08:59:05;;;;;;;0.57;0.17;;;;;;;18.86;47.17;98923.19;4981958;28;20105;-63
2022/04/22 09:01:31;;;;;;;1.48;0.10;;;;;;;18.84;47.07;98914.72;4987080;28;20504;-61
2022/04/22 09:03:57;;;;;;;0.55;0.10;;;;;;;18.85;46.93;98902.31;4985047;28;20034;-62
2022/04/22 09:06:25;;;;;;;0.80;0.10;;;;;;;18.84;47.09;98906.78;4986814;28;20022;-61
2022/04/22 09:08:51;;;;;;;0.35;0.20;;;;;;;18.84;47.12;98906.78;4986831;28;20033;-60
2022/04/22 09:11:17;;;;;;;0.73;0.10;;;;;;;18.85;47.21;98889.13;4987457;28;20035;-61
2022/04/22 09:13:43;;;;;;;0.68;0.20;;;;;;;18.83;47.02;98889.34;4987480;28;20046;-61
2022/04/22 09:16:18;;;;;;;1.55;0.10;;;;;;;18.82;47.30;98895.66;4984230;28;20495;-62
2022/04/22 09:18:45;;;;;;;2.00;0.20;;;;;;;18.81;47.09;98904.63;4988148;28;20052;-62
2022/04/22 09:21:17;;;;;;;1.70;0.10;;;;;;;18.80;47.03;98904.84;4986509;28;20037;-63
2022/04/22 09:23:45;;;;;;;0.80;0.10;;;;;;;18.80;47.29;98910.13;4983225;28;20026;-62
2022/04/22 09:26:24;;;;;;;0.38;0.20;;;;;;;18.77;46.92;98903.50;4985453;28;20041;-60
2022/04/22 09:29:03;;;;;;;1.27;0.10;;;;;;;18.78;46.97;98896.38;4987653;28;20118;-61
2022/04/22 09:31:30;;;;;;;2.15;0.10;;;;;;;18.77;47.00;98910.59;4980106;28;20116;-60
2022/04/22 09:33:56;;;;;;;0.38;0.10;;;;;;;18.77;47.02;98905.31;4987363;28;20043;-63
2022/04/22 09:44:56;;;;;;;0.55;0.10;;;;;;;18.73;47.16;98910.25;4974856;28;20077;-63
2022/04/22 09:47:24;;;;;;;0.10;0.00;;;;;;;18.72;47.15;98913.94;4978982;28;20145;-62
2022/04/22 09:49:50;;;;;;;1.17;0.10;;;;;;;18.73;47.05;98909.47;4987628;28;20097;-62
2022/04/22 09:52:24;;;;;;;0.45;0.10;;;;;;;18.71;47.11;98907.06;4985374;28;20456;-61
2022/04/22 09:55:06;;;;;;;0.38;0.10;;;;;;;18.69;47.20;98909.13;4986619;28;20092;-60
2022/04/22 09:57:49;;;;;;;0.45;0.30;;;;;;;18.69;47.05;98903.84;4983975;28;20026;-61
2022/04/22 10:00:17;;;;;;;0.73;0.10;;;;;;;18.72;47.09;98907.88;4984875;28;20038;-62
2022/04/22 10:02:43;;;;;;;0.60;0.20;;;;;;;18.72;47.13;98900.75;4985101;28;20646;-61
2022/04/22 10:05:11;;;;;;;0.50;0.10;;;;;;;18.73;47.07;98910.25;4984957;28;20034;-61
2022/04/22 10:07:36;;;;;;;1.33;0.10;;;;;;;18.73;46.96;98912.91;4979362;28;20487;-60
2022/04/22 10:10:03;;;;;;;3.30;0.10;;;;;;;18.74;46.98;98914.50;4987963;28;20036;-62
2022/04/22 10:12:32;;;;;;;1.17;0.10;;;;;;;18.74;47.04;98917.16;4985388;28;20052;-59
2022/04/22 10:15:01;;;;;;;0.63;0.10;;;;;;;18.75;47.01;98918.75;4988570;28;20030;-62
2022/04/22 10:17:27;;;;;;;1.63;0.10;;;;;;;18.76;46.97;98917.72;4984719;28;20057;-62
2022/04/22 10:19:53;;;;;;;2.25;0.40;;;;;;;18.77;46.91;98921.97;4987722;28;20053;-59
2022/04/22 10:22:19;;;;;;;0.40;0.10;;;;;;;18.78;46.76;98923.56;4989977;28;20030;-61
2022/04/22 10:24:46;;;;;;;0.75;0.10;;;;;;;18.79;46.88;98924.34;4986586;28;20034;-60
2022/04/22 10:27:13;;;;;;;0.82;0.10;;;;;;;18.79;46.89;98919.88;4985571;28;20121;-61
2022/04/22 10:29:41;;;;;;;0.50;0.10;;;;;;;18.79;46.75;98927.81;4988089;28;20504;-60
2022/04/22 10:32:07;;;;;;;3.20;0.10;;;;;;;18.78;46.85;98923.56;4981771;28;20446;-61
2022/04/22 10:34:45;;;;;;;0.55;0.10;;;;;;;18.78;46.99;98925.41;4988172;28;20049;-59
2022/04/22 10:37:23;;;;;;;1.58;0.10;;;;;;;18.78;46.99;98933.31;4995077;28;20045;-60
2022/04/22 10:39:51;;;;;;;1.40;0.10;;;;;;;18.78;47.00;98931.47;4972360;28;20046;-63
2022/04/22 10:42:16;;;;;;;0.40;0.00;;;;;;;18.79;46.87;98930.44;4984191;28;20513;-61
2022/04/22 10:47:45;;;;;;;0.30;0.08;;;;;;;18.75;46.80;98931.13;4988199;28;20557;-62
2022/04/22 10:50:28;;;;;;;0.13;0.00;;;;;;;18.73;46.81;98939.28;4984887;28;20100;-62
2022/04/22 10:53:03;;;;;;;0.10;0.05;;;;;;;18.73;46.84;98949.84;4991554;28;20368;-62
2022/04/22 10:55:41;;;;;;;2.60;0.20;;;;;;;18.72;46.88;98956.16;4989924;28;20122;-62
2022/04/22 10:58:12;;;;;;;1.67;0.10;;;;;;;18.73;47.03;98963.03;4984209;28;20105;-61
2022/04/22 11:00:41;;;;;;;0.73;0.10;;;;;;;18.73;46.91;98978.84;4992020;28;20366;-63
2022/04/22 11:03:14;;;;;;;0.40;0.10;;;;;;;18.72;46.85;98987.00;4996339;28;20429;-61
2022/04/22 11:05:46;;;;;;;0.30;0.00;;;;;;;18.73;46.91;98993.88;4989336;28;20041;-60
2022/04/22 11:08:20;;;;;;;0.25;0.10;;;;;;;18.72;46.97;99002.84;4999027;28;20335;-59
2022/04/22 11:10:51;;;;;;;1.17;0.00;;;;;;;18.73;46.84;98999.16;4989672;28;20117;-61
2022/04/22 11:13:30;;;;;;;2.20;0.10;;;;;;;18.70;46.82;99010.97;4987136;28;20056;-60
2022/04/22 11:16:22;;;;;;;5.68;0.20;;;;;;;18.70;46.97;99008.34;4989781;28;20562;-61
2022/04/22 11:19:09;;;;;;;3.90;0.20;;;;;;;18.70;47.40;99008.34;4988315;28;20173;-59
2022/04/22 11:21:37;;;;;;;1.40;0.20;;;;;;;18.77;48.00;99002.94;4986639;28;20036;-60
2022/04/22 11:24:19;;;;;;;1.73;0.10;;;;;;;18.81;49.40;98991.69;4986556;28;20044;-62
2022/04/22 11:26:46;;;;;;;1.88;0.20;;;;;;;18.87;49.60;98989.97;4987910;28;20089;-61
2022/04/22 11:29:13;;;;;;;2.72;0.28;;;;;;;18.90;49.96;98984.22;4991495;28;20046;-62
2022/04/22 11:31:39;;;;;;;1.65;0.10;;;;;;;18.93;50.33;98978.44;4989252;28;20121;-62
2022/04/22 11:34:16;;;;;;;1.50;0.10;;;;;;;18.95;50.68;98973.72;4990038;28;20031;-60
2022/04/22 11:36:47;;;;;;;2.88;0.20;;;;;;;18.98;50.48;98956.63;4981752;28;20395;-60
2022/04/22 11:39:20;;;;;;;4.25;0.20;;;;;;;19.03;50.68;98967.28;4986924;28;20022;-59
2022/04/22 11:41:59;;;;;;;3.88;0.20;;;;;;;19.07;53.20;98976.34;4987730;28;20038;-58
2022/04/22 11:44:25;;;;;;;3.70;0.20;;;;;;;19.12;53.81;98976.44;4986157;28;20314;-61
2022/04/22 11:46:54;;;;;;;5.90;0.47;;;;;;;19.27;54.61;98978.56;4987147;28;20037;-59
2022/04/22 11:49:20;;;;;;;3.75;0.30;;;;;;;19.47;55.10;98978.91;4987225;28;20122;-59
2022/04/22 11:51:52;;;;;;;4.70;0.40;;;;;;;19.54;55.15;98985.66;4989037;28;20782;-60
2022/04/22 11:54:22;;;;;;;2.40;0.30;;;;;;;19.54;55.90;98990.94;4993135;28;20049;-63
2022/04/22 11:56:47;;;;;;;1.95;0.30;;;;;;;19.50;56.64;98995.06;4988532;28;20136;-64
2022/04/22 11:59:12;;;;;;;3.33;0.20;;;;;;;19.49;57.48;98990.81;4979386;28;20503;-64
2022/04/22 12:10:03;;;;;;;2.30;0.32;;;;;;;19.47;54.87;99013.25;4985685;28;20145;-61
2022/04/22 12:12:31;;;;;;;13.85;11.23;;;;;;;19.46;53.50;99006.34;4987847;28;20045;-63
2022/04/22 12:15:05;;;;;;;24.23;18.85;;;;;;;19.44;52.82;99011.88;4982788;28;20033;-62
2022/04/22 12:17:31;;;;;;;12.38;9.55;;;;;;;19.45;52.43;99013.47;4986412;28;20034;-63
2022/04/22 12:19:57;;;;;;;7.72;4.63;;;;;;;19.41;52.05;99012.34;4982506;28;20057;-62
2022/04/22 12:22:24;;;;;;;6.25;2.45;;;;;;;19.40;51.79;99008.09;4985558;28;20038;-60
2022/04/22 12:25:08;;;;;;;4.15;1.42;;;;;;;19.36;51.88;99009.63;4986839;28;20161;-61
2022/04/22 12:27:34;;;;;;;7.78;1.33;;;;;;;19.34;51.80;99010.91;4979691;28;20128;-61
2022/04/22 12:30:00;;;;;;;3.85;1.30;;;;;;;19.34;51.67;99005.63;4980061;28;20313;-60
2022/04/22 12:32:26;;;;;;;5.47;1.00;;;;;;;19.39;52.28;98988.00;4986449;28;20061;-59
2022/04/22 12:34:51;;;;;;;3.85;1.25;;;;;;;19.55;52.41;98967.97;4983490;28;20090;-56
2022/04/22 12:37:18;;;;;;;6.20;1.52;;;;;;;19.68;51.83;98965.03;4982088;28;20031;-59
2022/04/22 12:39:46;;;;;;;6.57;1.60;;;;;;;19.67;51.19;98965.28;4981768;28;20272;-60
2022/04/22 12:42:17;;;;;;;4.97;1.17;;;;;;;19.58;51.15;98970.16;4979463;28;20256;-59